Airfield :
LOGIN :

Register | Disclaimer

   EN    FR    IT 

 










Legend :    VFR   Marginal VFR   IFR   Intensive IFR   Very Intensive IFR
Visi :
Ceiling :
>= 8 km
>= 3000ft
5 to 8 km
1000 to 3000 ft
1500m to 5 km
500 to 1000 ft
800 to 1500m
200 to 500 ft
< 800m
< 200 ft
Symbols :   Thunderstorms  Fog  Heavy snow  Heavy precipitations  Wind > 20 kt
SIGMETs :     Misc.  Thunderstorms  Icing  Turbulence  Mountain Waves  Volcanic Ashes







- Airport Elevation : 0 ft


ENSL - Sleipner A Platform

CURRENT METAR :
  • 241320Z 15025KT 9999 FEW010 15/13 Q1024 W14/S4

EXPIRED METARs :
  • 241250Z 15026KT 9999 FEW010 15/13 Q1024 W14/S4
  • 241220Z 14025KT 9999 SCT009 15/13 Q1024 W14/S4
  • 241150Z 15026KT 9999 SCT010 15/13 Q1024 W14/S4
  • 241120Z 15025KT 9999 SCT010 15/13 Q1024 W14/S4
  • 241050Z 15025KT 9999 SCT010 14/13 Q1023 W14/S4

TAF TAF ENSL
Valid from the 24 at 12:00 until the 24 at 17:00 UTC


241100Z 2412/2417 14028KT 9999 FEW010
TEMPO 2412/2417 BKN010
No reported NOTAMs for that airfield.



MET'MAP, your aeronautical weather chart ! - Copyright ORBIFLY December 2007 - Disclaimer

ORBIFLY MET'MAP TEAM :

Programming & Development : Alexandra Zaïnal
Concept & Development : Baudouin d'Aumeries
Co-Development & Prog : Marc-Olivier Méhu
Technical & hardware support : Manuel Goepfert

Contact : metmap@orbifly.com




SOURCES & CREDITS :

   NOAA